aviador You're here:

KHDO Decoded Metar

HONDO in TX, USA
Report Time2017-11-24 10:51:00
UTC Time2017-11-24 11:17:35
Flight Rules vfr VFR
Wind340° at 06 kt
W.Decomp.*RWY 35: 5.7 kt HW 1.9 kt LCW
RWY 31: 5.6 kt HW 2.2 kt RCW
RWY 26: 1.9 kt HW 5.7 kt RCW
W.Rank340° ranks 22
Current wind is below 340° avg. (6.7)
Visibility9999 m
Phenomena:N/A
Clouds:N/A
Expected CloudBase > 2,000 ft AGL from Temp-Dew spread
CeilingNone
Temp03°C (ISA -10)
Dew Point-2°C (70% RH)
AAT-1.4°C
QNH1016 hPa
Density Alt-331 ft
Elevation925 ft
Report Wrong Elevation
Raw Report
METAR KHDO 241051Z AUTO 34006KT 10SM CLR 03/M02 A3001 RMK AO2 SLP157
T00331022 $=

Extra information for KHDO:More info

Metar Taf Metar & Taf Last 4 Metars F.Rules Stats Wind Profile Meteogram Temp Stats Airport Information Weather charts Add Link Nearby VenuesMetar ALERT Operation Metar Decoded Social comments

AIRNAV info for KHDO